createdAt,value
2022-10-01T00:00:27.863Z,0.00
2022-10-01T00:01:23.773Z,0.00
2022-10-01T00:02:18.825Z,0.00
2022-10-01T00:03:14.078Z,0.00
2022-10-01T00:04:09.890Z,0.00
2022-10-01T00:05:05.079Z,0.00
2022-10-01T00:06:00.395Z,0.00
2022-10-01T00:06:56.753Z,0.00
2022-10-01T00:07:51.945Z,0.00
2022-10-01T00:08:47.710Z,0.00
2022-10-01T00:09:42.858Z,0.00
2022-10-01T00:10:38.261Z,0.00
2022-10-01T00:11:34.116Z,0.00
2022-10-01T00:12:29.092Z,0.00
2022-10-01T00:13:24.832Z,0.00
2022-10-01T00:14:20.013Z,0.00
2022-10-01T00:15:15.332Z,0.00
2022-10-01T00:16:11.050Z,0.00
2022-10-01T00:17:06.226Z,0.00
2022-10-01T00:18:01.407Z,0.00
2022-10-01T00:18:57.693Z,0.00
2022-10-01T00:19:52.901Z,0.00
2022-10-01T00:20:48.622Z,0.00
2022-10-01T00:21:43.804Z,0.00
2022-10-01T00:22:39.015Z,0.00
2022-10-01T00:23:34.873Z,0.00
2022-10-01T00:24:30.088Z,0.00
2022-10-01T00:25:25.832Z,0.00
2022-10-01T00:26:21.033Z,0.00
2022-10-01T00:27:16.370Z,0.00
2022-10-01T00:28:12.180Z,0.00
2022-10-01T00:29:07.433Z,0.00
2022-10-01T00:30:02.576Z,0.00
2022-10-01T00:30:59.091Z,0.00
2022-10-01T00:31:54.363Z,0.00
2022-10-01T00:32:50.093Z,0.00
2022-10-01T00:33:45.278Z,0.00
2022-10-01T00:34:40.498Z,0.00
2022-10-01T00:35:36.236Z,0.00
2022-10-01T00:36:31.575Z,0.00
2022-10-01T00:37:27.454Z,0.00
2022-10-01T00:38:22.508Z,0.00
2022-10-01T00:39:17.687Z,0.00
2022-10-01T00:40:13.437Z,0.00
2022-10-01T00:41:08.677Z,0.00
2022-10-01T00:42:03.958Z,0.00
2022-10-01T00:42:58.999Z,0.00
2022-10-01T00:43:55.658Z,0.00
2022-10-01T00:44:50.953Z,0.00
2022-10-01T00:45:46.245Z,0.00
2022-10-01T00:46:42.033Z,0.00
2022-10-01T00:47:37.230Z,0.00
2022-10-01T00:48:32.386Z,0.00
2022-10-01T00:49:28.812Z,0.00
2022-10-01T00:50:24.005Z,0.00
2022-10-01T00:51:19.737Z,0.00
2022-10-01T00:52:14.939Z,0.00
2022-10-01T00:53:10.166Z,0.00
2022-10-01T00:54:05.957Z,0.00
2022-10-01T00:55:01.158Z,0.00
2022-10-01T00:55:57.065Z,0.00
2022-10-01T00:56:52.111Z,0.00
2022-10-01T00:57:47.303Z,0.00
2022-10-01T00:58:43.079Z,0.00
2022-10-01T00:59:38.254Z,0.00
2022-10-01T01:00:33.480Z,0.00
2022-10-01T01:01:28.835Z,0.00
2022-10-01T01:02:23.981Z,0.00
2022-10-01T01:03:19.305Z,0.00
2022-10-01T01:04:14.501Z,0.00
2022-10-01T01:05:09.664Z,0.00
2022-10-01T01:06:05.421Z,0.00
2022-10-01T01:07:00.578Z,0.00
2022-10-01T01:07:55.921Z,0.00
2022-10-01T01:08:50.965Z,0.00
2022-10-01T01:09:46.030Z,0.00
2022-10-01T01:10:41.088Z,0.00
2022-10-01T01:11:36.464Z,0.00
2022-10-01T01:12:31.162Z,0.00
2022-10-01T01:13:26.233Z,0.00
2022-10-01T01:14:21.391Z,0.00
2022-10-01T01:15:16.624Z,0.00
2022-10-01T01:16:11.798Z,0.00
2022-10-01T01:17:06.817Z,0.00
2022-10-01T01:18:01.847Z,0.00
2022-10-01T01:18:57.071Z,0.00
2022-10-01T01:19:51.985Z,0.00
2022-10-01T01:20:47.179Z,0.00
2022-10-01T01:21:42.240Z,0.00
2022-10-01T01:22:37.285Z,0.00
2022-10-01T01:23:32.382Z,0.00
2022-10-01T01:24:27.327Z,0.00
2022-10-01T01:25:22.339Z,0.00
2022-10-01T01:26:17.373Z,0.00
2022-10-01T01:27:12.431Z,0.00
2022-10-01T01:28:07.540Z,0.00
2022-10-01T01:29:02.616Z,0.00
2022-10-01T01:29:57.673Z,0.00
2022-10-01T01:30:52.732Z,0.00
2022-10-01T01:31:47.929Z,0.00
2022-10-01T01:32:43.079Z,0.00
2022-10-01T01:33:38.257Z,0.00
2022-10-01T01:34:33.511Z,0.00
2022-10-01T01:35:28.658Z,0.00
2022-10-01T01:36:23.805Z,0.00
2022-10-01T01:37:19.008Z,0.00
2022-10-01T01:38:14.314Z,0.00
2022-10-01T01:39:10.324Z,0.00
2022-10-01T01:40:05.488Z,0.00
2022-10-01T01:41:00.565Z,0.00
2022-10-01T01:41:55.746Z,0.00
2022-10-01T01:42:50.901Z,0.00
2022-10-01T01:43:46.066Z,0.00
2022-10-01T01:44:41.295Z,0.00
2022-10-01T01:45:36.517Z,0.00
2022-10-01T01:46:31.825Z,0.00
2022-10-01T01:47:26.874Z,0.00
2022-10-01T01:48:22.030Z,0.00
2022-10-01T01:49:17.203Z,0.00
2022-10-01T01:50:12.395Z,0.00
2022-10-01T01:51:07.718Z,0.00
2022-10-01T01:52:02.746Z,0.00
2022-10-01T01:52:57.895Z,0.00
2022-10-01T01:53:53.100Z,0.00
2022-10-01T01:54:48.439Z,0.00
2022-10-01T01:55:43.592Z,0.00
2022-10-01T01:56:38.797Z,0.00
2022-10-01T01:57:33.974Z,0.00
2022-10-01T01:58:29.163Z,0.00
2022-10-01T01:59:24.381Z,0.00
2022-10-01T02:00:19.527Z,0.00
2022-10-01T02:01:14.803Z,0.00
2022-10-01T02:02:10.077Z,0.00
2022-10-01T02:03:05.307Z,0.00
2022-10-01T02:04:00.398Z,0.00
2022-10-01T02:04:55.582Z,0.00
2022-10-01T02:05:50.750Z,0.00
2022-10-01T02:06:45.776Z,0.00
2022-10-01T02:07:40.786Z,0.00
2022-10-01T02:08:35.824Z,0.00
2022-10-01T02:09:31.013Z,0.00
2022-10-01T02:10:26.335Z,0.00
2022-10-01T02:11:21.379Z,0.00
2022-10-01T02:12:16.463Z,0.00
2022-10-01T02:13:15.605Z,0.00
2022-10-01T02:14:10.651Z,0.00
2022-10-01T02:15:05.811Z,0.00
2022-10-01T02:16:01.026Z,0.00
2022-10-01T02:16:56.343Z,0.00
2022-10-01T02:17:51.501Z,0.00
2022-10-01T02:18:46.643Z,0.00
2022-10-01T02:19:41.819Z,0.00
2022-10-01T02:20:36.999Z,0.00
2022-10-01T02:21:32.421Z,0.00
2022-10-01T02:22:27.318Z,0.00
2022-10-01T02:23:22.767Z,0.00
2022-10-01T02:24:17.827Z,0.00
2022-10-01T02:25:12.980Z,0.00
2022-10-01T02:26:08.165Z,0.00
2022-10-01T02:27:03.464Z,0.00
2022-10-01T02:27:58.662Z,0.00
2022-10-01T02:28:53.844Z,0.00
2022-10-01T02:29:49.049Z,0.00
2022-10-01T02:30:44.285Z,0.00
2022-10-01T02:31:39.683Z,0.00
2022-10-01T02:32:34.686Z,0.00
2022-10-01T02:33:29.868Z,0.00
2022-10-01T02:34:25.043Z,0.00
2022-10-01T02:35:20.332Z,0.00
2022-10-01T02:36:15.511Z,0.00
2022-10-01T02:37:10.545Z,0.00
2022-10-01T02:38:05.762Z,0.00
2022-10-01T02:39:00.931Z,0.00
2022-10-01T02:39:56.244Z,0.00
2022-10-01T02:40:51.305Z,0.00
2022-10-01T02:41:46.491Z,0.00
2022-10-01T02:42:41.699Z,0.00
2022-10-01T02:43:41.973Z,0.00
2022-10-01T02:44:33.318Z,0.00
2022-10-01T02:45:27.438Z,0.00
2022-10-01T02:46:22.617Z,0.00
2022-10-01T02:47:17.827Z,0.00
2022-10-01T02:48:12.969Z,0.00
2022-10-01T02:49:08.136Z,0.00
2022-10-01T02:50:03.351Z,0.00
2022-10-01T02:50:58.521Z,0.00
2022-10-01T02:51:53.827Z,0.00
2022-10-01T02:52:48.863Z,0.00
2022-10-01T02:53:44.121Z,0.00
2022-10-01T02:54:39.407Z,0.00
2022-10-01T02:55:34.409Z,0.00
2022-10-01T02:56:29.825Z,0.00
2022-10-01T02:57:24.898Z,0.00
2022-10-01T02:58:20.026Z,0.00
2022-10-01T02:59:15.192Z,0.00
2022-10-01T03:00:10.363Z,0.00
2022-10-01T03:01:05.702Z,0.00
2022-10-01T03:02:00.882Z,0.00
2022-10-01T03:02:56.068Z,0.00
2022-10-01T03:03:51.204Z,0.00
2022-10-01T03:04:46.394Z,0.00
2022-10-01T03:05:41.554Z,0.00
2022-10-01T03:06:36.788Z,0.00
2022-10-01T03:07:31.977Z,0.00
2022-10-01T03:08:27.248Z,0.00
2022-10-01T03:09:22.472Z,0.00
2022-10-01T03:10:17.765Z,0.00
2022-10-01T03:11:12.839Z,0.00
2022-10-01T03:12:07.887Z,0.00
2022-10-01T03:13:02.957Z,0.00
2022-10-01T03:13:57.997Z,0.00
2022-10-01T03:14:53.196Z,0.00
2022-10-01T03:15:48.308Z,0.00
2022-10-01T03:16:43.252Z,0.00
2022-10-01T03:17:38.266Z,0.00
2022-10-01T03:18:33.337Z,0.00
2022-10-01T03:19:28.404Z,0.00
2022-10-01T03:20:23.454Z,0.00
2022-10-01T03:21:18.507Z,0.00
2022-10-01T03:22:13.541Z,0.00
2022-10-01T03:23:08.614Z,0.00
2022-10-01T03:24:03.671Z,0.00
2022-10-01T03:24:58.681Z,0.00
2022-10-01T03:25:53.743Z,0.00
2022-10-01T03:26:48.934Z,0.00
2022-10-01T03:27:44.178Z,0.00
2022-10-01T03:28:39.369Z,0.00
2022-10-01T03:29:34.547Z,0.00
2022-10-01T03:30:29.824Z,0.00
2022-10-01T03:31:25.094Z,0.00
2022-10-01T03:32:20.312Z,0.00
2022-10-01T03:33:15.502Z,0.00
2022-10-01T03:34:10.699Z,0.00
2022-10-01T03:35:06.010Z,0.00
2022-10-01T03:36:01.057Z,0.00
2022-10-01T03:36:57.626Z,0.00
2022-10-01T03:37:52.831Z,0.00
2022-10-01T03:38:48.688Z,0.00
2022-10-01T03:39:43.827Z,0.00
2022-10-01T03:40:39.135Z,0.00
2022-10-01T03:41:35.187Z,0.00
2022-10-01T03:42:30.078Z,0.00
2022-10-01T03:43:25.957Z,0.00
2022-10-01T03:44:21.244Z,0.00
2022-10-01T03:45:16.455Z,0.00
2022-10-01T03:46:12.266Z,0.00
2022-10-01T03:47:07.468Z,0.00
2022-10-01T03:48:02.612Z,0.00
2022-10-01T03:48:59.037Z,0.00
2022-10-01T03:49:54.219Z,0.00
2022-10-01T03:50:49.961Z,0.00
2022-10-01T03:51:45.313Z,0.00
2022-10-01T03:52:40.483Z,0.00
2022-10-01T03:53:36.240Z,0.00
2022-10-01T03:54:31.425Z,0.00
2022-10-01T03:55:27.394Z,0.00
2022-10-01T03:56:22.456Z,0.00
2022-10-01T03:57:17.707Z,0.00
2022-10-01T03:58:13.461Z,0.00
2022-10-01T03:59:08.637Z,0.00
2022-10-01T04:00:04.116Z,0.00
2022-10-01T04:01:00.146Z,0.00
2022-10-01T04:01:55.382Z,0.00
2022-10-01T04:02:51.255Z,0.00
2022-10-01T04:03:46.401Z,0.00
2022-10-01T04:04:41.859Z,0.00
2022-10-01T04:05:37.503Z,0.00
2022-10-01T04:06:32.685Z,0.00
2022-10-01T04:07:28.570Z,0.00
2022-10-01T04:08:24.464Z,0.00
2022-10-01T04:09:19.213Z,0.00
2022-10-01T04:10:14.861Z,0.00
2022-10-01T04:11:10.035Z,0.00
2022-10-01T04:12:05.248Z,0.00
2022-10-01T04:13:01.652Z,0.00
2022-10-01T04:13:56.868Z,0.00
2022-10-01T04:14:52.729Z,0.00
2022-10-01T04:15:47.985Z,0.00
2022-10-01T04:16:43.033Z,0.00
2022-10-01T04:17:41.588Z,0.00
2022-10-01T04:18:35.015Z,0.00
2022-10-01T04:19:29.972Z,0.00
2022-10-01T04:20:24.989Z,0.00
2022-10-01T04:21:20.345Z,0.00
2022-10-01T04:22:16.065Z,0.00
2022-10-01T04:23:11.261Z,0.00
2022-10-01T04:24:06.573Z,0.00
2022-10-01T04:25:02.762Z,0.00
2022-10-01T04:25:57.940Z,0.00
2022-10-01T04:26:53.686Z,0.00
2022-10-01T04:27:49.002Z,0.00
2022-10-01T04:28:44.157Z,0.00
2022-10-01T04:29:40.477Z,0.00
2022-10-01T04:30:35.155Z,0.00
2022-10-01T04:31:31.205Z,0.00
2022-10-01T04:32:26.055Z,0.00
2022-10-01T04:33:21.236Z,0.00
2022-10-01T04:34:17.278Z,0.00
2022-10-01T04:35:12.475Z,0.00
2022-10-01T04:36:07.802Z,0.00
2022-10-01T04:37:02.832Z,0.00
2022-10-01T04:37:58.156Z,0.00
2022-10-01T04:38:57.886Z,0.00
2022-10-01T04:39:50.020Z,0.00
2022-10-01T04:40:44.836Z,0.00
2022-10-01T04:41:39.982Z,0.00
2022-10-01T04:42:35.321Z,0.00
2022-10-01T04:43:30.929Z,1.00
2022-10-01T04:44:26.320Z,1.00
2022-10-01T04:45:21.511Z,1.00
2022-10-01T04:46:18.081Z,0.00
2022-10-01T04:47:13.215Z,0.00
2022-10-01T04:48:08.940Z,1.00
2022-10-01T04:49:04.221Z,1.00
2022-10-01T04:49:59.334Z,1.00
2022-10-01T04:50:55.021Z,1.00
2022-10-01T04:51:50.219Z,1.00
2022-10-01T04:52:45.397Z,2.00
2022-10-01T04:53:40.585Z,2.00
2022-10-01T04:54:35.832Z,3.00
2022-10-01T04:55:30.882Z,3.00
2022-10-01T04:56:25.940Z,4.00
2022-10-01T04:57:21.007Z,5.00
2022-10-01T04:58:15.998Z,5.00
2022-10-01T04:59:11.023Z,6.00
2022-10-01T05:00:06.045Z,7.00
2022-10-01T05:01:02.278Z,8.00
2022-10-01T05:01:56.239Z,10.00
2022-10-01T05:02:51.152Z,12.00
2022-10-01T05:03:46.384Z,13.00
2022-10-01T05:04:41.461Z,14.00
2022-10-01T05:05:36.645Z,18.00
2022-10-01T05:06:31.619Z,21.00
2022-10-01T05:07:26.858Z,24.00
2022-10-01T05:08:21.875Z,27.00
2022-10-01T05:09:16.960Z,28.00
2022-10-01T05:10:12.099Z,32.00
2022-10-01T05:11:07.203Z,34.00
2022-10-01T05:12:02.683Z,41.00
2022-10-01T05:12:57.890Z,56.00
2022-10-01T05:13:53.143Z,60.00
2022-10-01T05:14:48.242Z,70.00
2022-10-01T05:15:43.361Z,81.00
2022-10-01T05:16:38.511Z,90.00
2022-10-01T05:17:33.531Z,99.00
2022-10-01T05:18:28.655Z,109.00
2022-10-01T05:19:27.884Z,121.00
2022-10-01T05:20:18.783Z,131.00
2022-10-01T05:21:13.793Z,159.00
2022-10-01T05:22:08.795Z,172.00
2022-10-01T05:23:03.981Z,174.00
2022-10-01T05:23:59.142Z,207.00
2022-10-01T05:24:55.173Z,219.00
2022-10-01T05:25:50.503Z,227.00
2022-10-01T05:26:45.857Z,247.00
2022-10-01T05:27:41.185Z,264.00
2022-10-01T05:28:36.585Z,285.00
2022-10-01T05:29:31.753Z,303.00
2022-10-01T05:30:27.110Z,314.00
2022-10-01T05:31:22.494Z,324.00
2022-10-01T05:32:18.155Z,324.00
2022-10-01T05:33:13.386Z,353.00
2022-10-01T05:34:08.752Z,389.00
2022-10-01T05:35:04.123Z,402.00
2022-10-01T05:35:59.563Z,399.00
2022-10-01T05:36:54.757Z,418.00
2022-10-01T05:37:50.218Z,421.00
2022-10-01T05:38:45.426Z,442.00
2022-10-01T05:39:41.055Z,485.00
2022-10-01T05:40:36.131Z,511.00
2022-10-01T05:41:31.643Z,505.00
2022-10-01T05:42:26.716Z,534.00
2022-10-01T05:43:22.047Z,544.00
2022-10-01T05:44:17.516Z,575.00
2022-10-01T05:45:12.776Z,612.00
2022-10-01T05:46:08.160Z,662.00
2022-10-01T05:47:03.632Z,678.00
2022-10-01T05:47:58.885Z,708.00
2022-10-01T05:48:54.203Z,705.00
2022-10-01T05:49:49.556Z,739.00
2022-10-01T05:50:44.892Z,763.00
2022-10-01T05:51:40.218Z,813.00
2022-10-01T05:52:35.541Z,812.00
2022-10-01T05:53:30.927Z,866.00
2022-10-01T05:54:26.299Z,899.00
2022-10-01T05:55:21.614Z,915.00
2022-10-01T05:56:17.107Z,987.00
2022-10-01T05:57:12.333Z,1047.00
2022-10-01T05:58:07.764Z,1064.00
2022-10-01T05:59:03.157Z,1115.00
2022-10-01T05:59:59.901Z,1159.00
2022-10-01T06:00:55.263Z,1219.00
2022-10-01T06:01:50.752Z,1244.00
2022-10-01T06:02:46.222Z,1244.00
2022-10-01T06:03:41.616Z,1221.00
2022-10-01T06:04:41.072Z,1273.00
2022-10-01T06:05:32.905Z,1290.00
2022-10-01T06:06:28.330Z,1311.00
2022-10-01T06:07:23.743Z,1317.00
2022-10-01T06:08:19.136Z,1331.00
2022-10-01T06:09:14.540Z,1303.00
2022-10-01T06:10:09.943Z,1223.00
2022-10-01T06:11:05.337Z,1315.00
2022-10-01T06:12:00.759Z,1370.00
2022-10-01T06:13:00.224Z,1350.00
2022-10-01T06:13:55.627Z,1400.00
2022-10-01T06:14:51.042Z,1480.00
2022-10-01T06:15:46.559Z,1490.00
2022-10-01T06:16:41.855Z,1486.00
2022-10-01T06:17:37.196Z,1518.00
2022-10-01T06:18:32.633Z,1546.00
2022-10-01T06:19:28.019Z,1631.00
2022-10-01T06:20:23.442Z,1584.00
2022-10-01T06:21:18.828Z,1573.00
2022-10-01T06:22:14.362Z,1646.00
2022-10-01T06:23:09.675Z,1605.00
2022-10-01T06:24:05.066Z,1585.00
2022-10-01T06:25:00.590Z,1626.00
2022-10-01T06:25:55.831Z,1488.00
2022-10-01T06:26:50.913Z,1583.00
2022-10-01T06:27:45.975Z,1527.00
2022-10-01T06:28:41.143Z,1512.00
2022-10-01T06:29:35.990Z,1508.00
2022-10-01T06:30:31.107Z,1521.00
2022-10-01T06:31:26.234Z,1502.00
2022-10-01T06:32:21.236Z,1479.00
2022-10-01T06:33:16.265Z,1504.00
2022-10-01T06:34:11.261Z,1489.00
2022-10-01T06:35:06.296Z,1517.00
2022-10-01T06:36:02.874Z,1450.00
2022-10-01T06:36:58.004Z,1433.00
2022-10-01T06:37:53.045Z,1473.00
2022-10-01T06:38:48.033Z,1468.00
2022-10-01T06:39:44.106Z,1454.00
2022-10-01T06:40:39.546Z,1495.00
2022-10-01T06:41:35.290Z,1508.00
2022-10-01T06:42:30.384Z,1472.00
2022-10-01T06:43:26.582Z,1518.00
2022-10-01T06:44:21.985Z,1533.00
2022-10-01T06:45:17.557Z,1630.00
2022-10-01T06:46:12.883Z,1622.00
2022-10-01T06:47:08.240Z,1621.00
2022-10-01T06:48:03.814Z,1604.00
2022-10-01T06:48:59.050Z,1630.00
2022-10-01T06:49:54.168Z,1620.00
2022-10-01T06:50:49.172Z,1625.00
2022-10-01T06:51:44.186Z,1688.00
2022-10-01T06:52:39.181Z,1733.00
2022-10-01T06:53:34.295Z,1748.00
2022-10-01T06:54:29.399Z,1783.00
2022-10-01T06:55:24.448Z,1821.00
2022-10-01T06:56:19.547Z,1977.00
2022-10-01T06:57:14.590Z,1994.00
2022-10-01T06:58:09.574Z,2012.00
2022-10-01T06:59:06.233Z,2102.00
2022-10-01T07:00:01.342Z,2187.00
2022-10-01T07:00:56.492Z,2143.00
2022-10-01T07:01:56.056Z,2132.00
2022-10-01T07:02:48.498Z,2251.00
2022-10-01T07:03:42.913Z,2255.00
2022-10-01T07:04:38.413Z,2267.00
2022-10-01T07:05:34.044Z,2279.00
2022-10-01T07:06:29.345Z,2411.00
2022-10-01T07:07:29.374Z,2509.00
2022-10-01T07:08:21.245Z,2531.00
2022-10-01T07:09:15.739Z,2620.00
2022-10-01T07:10:11.200Z,2630.00
2022-10-01T07:11:06.639Z,2644.00
2022-10-01T07:12:02.122Z,2642.00
2022-10-01T07:12:57.600Z,2616.00
2022-10-01T07:13:54.689Z,2608.00
2022-10-01T07:14:48.499Z,2546.00
2022-10-01T07:15:43.517Z,2462.00
2022-10-01T07:16:38.645Z,2392.00
2022-10-01T07:17:33.703Z,2279.00
2022-10-01T07:18:28.775Z,2291.00
2022-10-01T07:19:23.947Z,2285.00
2022-10-01T07:20:19.106Z,2306.00
2022-10-01T07:21:14.014Z,2304.00
2022-10-01T07:22:09.130Z,2250.00
2022-10-01T07:23:04.304Z,2171.00
2022-10-01T07:23:59.354Z,2161.00
2022-10-01T07:24:54.425Z,2183.00
2022-10-01T07:25:49.564Z,2189.00
2022-10-01T07:26:44.601Z,2077.00
2022-10-01T07:27:39.664Z,2200.00
2022-10-01T07:28:35.105Z,2251.00
2022-10-01T07:29:30.588Z,2286.00
2022-10-01T07:30:26.089Z,2387.00
2022-10-01T07:31:21.696Z,2476.00
2022-10-01T07:32:17.100Z,2653.00
2022-10-01T07:33:12.544Z,2629.00
2022-10-01T07:34:08.114Z,2737.00
2022-10-01T07:35:03.252Z,2858.00
2022-10-01T07:35:58.261Z,2857.00
2022-10-01T07:36:53.281Z,2918.00
2022-10-01T07:37:49.723Z,3013.00
2022-10-01T07:38:44.761Z,3095.00
2022-10-01T07:39:39.806Z,3271.00
2022-10-01T07:40:34.837Z,3372.00
2022-10-01T07:41:29.995Z,3522.00
2022-10-01T07:42:24.996Z,3765.00
2022-10-01T07:43:20.056Z,3719.00
2022-10-01T07:44:15.136Z,3994.00
2022-10-01T07:45:10.328Z,4125.00
2022-10-01T07:46:05.481Z,4189.00
2022-10-01T07:47:00.404Z,4092.00
2022-10-01T07:47:56.641Z,4005.00
2022-10-01T07:48:51.994Z,4087.00
2022-10-01T07:49:47.730Z,4411.00
2022-10-01T07:50:42.896Z,4552.00
2022-10-01T07:51:38.317Z,4638.00
2022-10-01T07:52:33.796Z,4800.00
2022-10-01T07:53:29.278Z,5103.00
2022-10-01T07:54:24.856Z,5515.00
2022-10-01T07:55:20.343Z,5561.00
2022-10-01T07:56:15.791Z,5803.00
2022-10-01T07:57:11.285Z,5837.00
2022-10-01T07:58:06.726Z,5999.00
2022-10-01T07:59:02.364Z,5889.00
2022-10-01T07:59:57.952Z,5584.00
2022-10-01T08:00:53.289Z,5395.00
2022-10-01T08:01:48.884Z,5116.00
2022-10-01T08:02:44.364Z,5021.00
2022-10-01T08:03:39.745Z,4905.00
2022-10-01T08:04:35.259Z,4659.00
2022-10-01T08:05:30.673Z,4640.00
2022-10-01T08:06:26.168Z,4882.00
2022-10-01T08:07:21.642Z,4961.00
2022-10-01T08:08:17.114Z,4915.00
2022-10-01T08:09:12.717Z,5137.00
2022-10-01T08:10:09.047Z,5363.00
2022-10-01T08:11:04.396Z,5498.00
2022-10-01T08:11:59.929Z,5580.00
2022-10-01T08:12:55.596Z,5684.00
2022-10-01T08:13:53.227Z,5721.00
2022-10-01T08:14:48.597Z,5577.00
2022-10-01T08:15:43.885Z,5721.00
2022-10-01T08:16:39.509Z,5627.00
2022-10-01T08:17:34.919Z,5730.00
2022-10-01T08:18:30.205Z,5639.00
2022-10-01T08:19:25.673Z,5708.00
2022-10-01T08:20:21.130Z,5719.00
2022-10-01T08:21:16.582Z,5726.00
2022-10-01T08:22:12.053Z,5542.00
2022-10-01T08:23:07.698Z,5538.00
2022-10-01T08:24:03.033Z,5521.00
2022-10-01T08:24:58.520Z,5315.00
2022-10-01T08:25:53.991Z,5381.00
2022-10-01T08:26:49.392Z,5349.00
2022-10-01T08:27:44.486Z,5295.00
2022-10-01T08:28:39.533Z,5111.00
2022-10-01T08:29:34.717Z,5072.00
2022-10-01T08:30:29.819Z,4929.00
2022-10-01T08:31:24.872Z,4757.00
2022-10-01T08:32:19.896Z,4606.00
2022-10-01T08:33:14.893Z,4394.00
2022-10-01T08:34:10.085Z,4100.00
2022-10-01T08:35:05.191Z,3952.00
2022-10-01T08:36:00.239Z,4148.00
2022-10-01T08:36:56.938Z,4479.00
2022-10-01T08:37:51.963Z,4636.00
2022-10-01T08:38:47.092Z,4642.00
2022-10-01T08:39:42.166Z,4434.00
2022-10-01T08:40:38.086Z,4252.00
2022-10-01T08:41:33.325Z,4013.00
2022-10-01T08:42:28.776Z,4129.00
2022-10-01T08:43:24.167Z,4176.00
2022-10-01T08:44:19.764Z,4171.00
2022-10-01T08:45:15.136Z,4352.00
2022-10-01T08:46:10.644Z,4242.00
2022-10-01T08:47:05.934Z,4507.00
2022-10-01T08:48:01.928Z,4398.00
2022-10-01T08:48:57.581Z,4441.00
2022-10-01T08:49:52.514Z,4334.00
2022-10-01T08:50:47.785Z,4102.00
2022-10-01T08:51:43.169Z,3881.00
2022-10-01T08:52:38.586Z,3784.00
2022-10-01T08:53:33.662Z,3752.00
2022-10-01T08:54:28.811Z,3599.00
2022-10-01T08:55:23.920Z,3342.00
2022-10-01T08:56:18.970Z,3435.00
2022-10-01T08:57:14.086Z,3519.00
2022-10-01T08:58:09.202Z,3609.00
2022-10-01T08:59:04.275Z,3693.00
2022-10-01T09:00:01.689Z,3707.00
2022-10-01T09:00:56.797Z,3834.00
2022-10-01T09:01:51.745Z,3806.00
2022-10-01T09:02:46.778Z,3830.00
2022-10-01T09:03:41.830Z,3830.00
2022-10-01T09:04:36.998Z,4121.00
2022-10-01T09:05:32.015Z,3950.00
2022-10-01T09:06:27.065Z,4127.00
2022-10-01T09:07:22.094Z,4441.00
2022-10-01T09:08:17.181Z,4445.00
2022-10-01T09:09:12.184Z,4535.00
2022-10-01T09:10:08.424Z,4401.00
2022-10-01T09:11:03.856Z,4715.00
2022-10-01T09:11:59.400Z,4918.00
2022-10-01T09:12:54.662Z,4805.00
2022-10-01T09:13:50.638Z,4923.00
2022-10-01T09:14:45.771Z,5083.00
2022-10-01T09:15:41.177Z,5244.00
2022-10-01T09:16:36.586Z,5249.00
2022-10-01T09:17:31.919Z,5275.00
2022-10-01T09:18:27.322Z,5320.00
2022-10-01T09:19:22.840Z,5210.00
2022-10-01T09:20:18.154Z,5428.00
2022-10-01T09:21:13.627Z,5871.00
2022-10-01T09:22:09.011Z,5991.00
2022-10-01T09:23:04.417Z,6036.00
2022-10-01T09:23:59.675Z,6096.00
2022-10-01T09:24:55.098Z,5753.00
2022-10-01T09:25:50.454Z,5521.00
2022-10-01T09:26:45.836Z,5194.00
2022-10-01T09:27:41.210Z,4637.00
2022-10-01T09:28:36.606Z,4928.00
2022-10-01T09:29:32.007Z,5815.00
2022-10-01T09:30:27.564Z,5896.00
2022-10-01T09:31:22.884Z,5650.00
2022-10-01T09:32:18.265Z,5294.00
2022-10-01T09:33:13.513Z,4845.00
2022-10-01T09:34:08.993Z,4545.00
2022-10-01T09:35:04.769Z,4597.00
2022-10-01T09:35:59.923Z,4184.00
2022-10-01T09:36:55.234Z,4675.00
2022-10-01T09:37:50.651Z,4967.00
2022-10-01T09:38:50.186Z,5425.00
2022-10-01T09:39:45.531Z,6151.00
2022-10-01T09:40:44.615Z,5959.00
2022-10-01T09:41:39.932Z,5676.00
2022-10-01T09:42:35.277Z,5599.00
2022-10-01T09:43:30.827Z,5428.00
2022-10-01T09:44:26.191Z,5096.00
2022-10-01T09:45:25.326Z,4887.00
2022-10-01T09:46:20.856Z,4599.00
2022-10-01T09:47:16.126Z,4279.00
2022-10-01T09:48:11.525Z,4179.00
2022-10-01T09:49:07.149Z,4414.00
2022-10-01T09:50:02.615Z,5233.00
2022-10-01T09:50:57.786Z,6657.00
2022-10-01T09:51:53.272Z,6879.00
2022-10-01T09:52:48.629Z,6816.00
2022-10-01T09:53:43.889Z,7356.00
2022-10-01T09:54:39.295Z,7536.00
2022-10-01T09:55:34.815Z,7663.00
2022-10-01T09:56:30.200Z,7700.00
2022-10-01T09:57:25.461Z,7555.00
2022-10-01T09:58:20.833Z,7035.00
2022-10-01T09:59:15.917Z,6878.00
2022-10-01T10:00:10.946Z,6253.00
2022-10-01T10:01:05.917Z,5890.00
2022-10-01T10:02:01.144Z,5535.00
2022-10-01T10:02:56.412Z,5386.00
2022-10-01T10:03:51.231Z,5326.00
2022-10-01T10:04:46.324Z,5733.00
2022-10-01T10:05:41.443Z,6427.00
2022-10-01T10:06:37.015Z,6933.00
2022-10-01T10:07:31.651Z,6259.00
2022-10-01T10:08:26.771Z,5597.00
2022-10-01T10:09:21.840Z,5335.00
2022-10-01T10:10:16.920Z,4896.00
2022-10-01T10:11:11.892Z,5192.00
2022-10-01T10:12:06.978Z,5432.00
2022-10-01T10:13:02.028Z,5244.00
2022-10-01T10:13:56.996Z,5079.00
2022-10-01T10:14:52.083Z,4562.00
2022-10-01T10:15:47.204Z,4563.00
2022-10-01T10:16:42.314Z,4599.00
2022-10-01T10:17:37.291Z,4705.00
2022-10-01T10:18:32.431Z,4909.00
2022-10-01T10:19:27.360Z,4310.00
2022-10-01T10:20:22.444Z,4477.00
2022-10-01T10:21:17.561Z,4696.00
2022-10-01T10:22:12.538Z,4831.00
2022-10-01T10:23:07.805Z,5041.00
2022-10-01T10:24:02.962Z,5142.00
2022-10-01T10:24:57.949Z,4950.00
2022-10-01T10:25:53.201Z,4912.00
2022-10-01T10:26:48.157Z,4849.00
2022-10-01T10:27:43.012Z,4808.00
2022-10-01T10:28:40.331Z,4808.00
2022-10-01T10:29:33.437Z,4648.00
2022-10-01T10:30:28.682Z,5348.00
2022-10-01T10:31:24.232Z,5510.00
2022-10-01T10:32:19.554Z,5909.00
2022-10-01T10:33:14.790Z,6249.00
2022-10-01T10:34:10.194Z,6364.00
2022-10-01T10:35:05.677Z,6469.00
2022-10-01T10:36:00.974Z,6921.00
2022-10-01T10:36:56.628Z,7129.00
2022-10-01T10:37:51.720Z,6198.00
2022-10-01T10:38:47.050Z,5552.00
2022-10-01T10:39:42.413Z,5359.00
2022-10-01T10:40:37.822Z,4721.00
2022-10-01T10:41:33.692Z,4723.00
2022-10-01T10:42:28.563Z,4940.00
2022-10-01T10:43:23.978Z,5582.00
2022-10-01T10:44:19.521Z,5567.00
2022-10-01T10:45:14.738Z,5273.00
2022-10-01T10:46:10.310Z,5013.00
2022-10-01T10:47:05.624Z,5009.00
2022-10-01T10:48:01.122Z,4755.00
2022-10-01T10:48:56.552Z,4351.00
2022-10-01T10:49:51.841Z,4162.00
2022-10-01T10:50:47.144Z,4041.00
2022-10-01T10:51:42.262Z,3851.00
2022-10-01T10:52:37.327Z,3904.00
2022-10-01T10:53:32.439Z,3982.00
2022-10-01T10:54:31.165Z,4176.00
2022-10-01T10:55:26.526Z,4295.00
2022-10-01T10:56:21.779Z,4035.00
2022-10-01T10:57:17.128Z,3630.00
2022-10-01T10:58:12.516Z,3701.00
2022-10-01T10:59:07.903Z,3642.00
2022-10-01T11:00:04.020Z,3573.00
2022-10-01T11:00:58.766Z,3746.00
2022-10-01T11:01:54.225Z,4092.00
2022-10-01T11:02:49.217Z,4272.00
2022-10-01T11:03:44.658Z,4793.00
2022-10-01T11:04:40.059Z,4558.00
2022-10-01T11:05:35.287Z,4249.00
2022-10-01T11:06:30.831Z,4252.00
2022-10-01T11:07:26.058Z,4357.00
2022-10-01T11:08:21.275Z,4845.00
2022-10-01T11:09:16.890Z,5551.00
2022-10-01T11:10:12.384Z,6138.00
2022-10-01T11:11:07.476Z,5841.00
2022-10-01T11:12:02.838Z,6081.00
2022-10-01T11:12:58.034Z,5661.00
2022-10-01T11:13:53.025Z,4544.00
2022-10-01T11:14:48.097Z,3865.00
2022-10-01T11:15:43.287Z,4687.00
2022-10-01T11:16:38.249Z,4780.00
2022-10-01T11:17:33.323Z,4323.00
2022-10-01T11:18:28.391Z,3991.00
2022-10-01T11:19:23.612Z,3990.00
2022-10-01T11:20:20.879Z,4407.00
2022-10-01T11:21:13.659Z,4863.00
2022-10-01T11:22:08.712Z,5146.00
2022-10-01T11:23:03.830Z,4713.00
2022-10-01T11:23:58.723Z,4896.00
2022-10-01T11:24:53.847Z,5278.00
2022-10-01T11:25:49.282Z,5417.00
2022-10-01T11:26:44.558Z,4949.00
2022-10-01T11:27:39.964Z,4864.00
2022-10-01T11:28:35.290Z,4408.00
2022-10-01T11:29:30.900Z,4462.00
2022-10-01T11:30:26.620Z,4982.00
2022-10-01T11:31:22.159Z,5531.00
2022-10-01T11:32:17.607Z,5913.00
2022-10-01T11:33:13.160Z,6114.00
2022-10-01T11:34:08.701Z,6211.00
2022-10-01T11:35:04.190Z,6201.00
2022-10-01T11:35:59.897Z,5843.00
2022-10-01T11:36:55.658Z,5341.00
2022-10-01T11:37:50.554Z,5629.00
2022-10-01T11:38:46.154Z,5822.00